Flight Track Log - Related Links

Times and Time Zones

All times are in EDT time to prevent confusion due to time zone crossing. See the A6-EGC flight status page for this flight to view local times or setup timezone preferences in your user account.

Time Position Orientation Groundspeed Altitude Reporting Facility
EDT Latitude Longitude Course Direction KTS MPH feet Rate Location/Type
Mon 02:44:02 PM 25.4630 55.3260 27° Northeast 284 327 7,100  Level FlightAware ADS-B
Mon 02:44:27 PM 25.4910 55.3420 27° Northeast 284 327 7,100 2,203 Level FlightAware ADS-B
Mon 02:47:00 PM 25.3951 55.6671 108° East  Level Estimated
Mon 02:48:00 PM 25.3572 55.7945 108° East  Level Estimated
Mon 02:49:00 PM 25.3193 55.9217 108° East  Level Estimated
Mon 02:49:07 PM 25.4210 55.8490 108° East 444 511 18,300  Level FlightAware ADS-B
Mon 02:51:00 PM 25.3484 56.0884 108° East  Level Estimated
Mon 02:51:12 PM 25.3740 56.1480 108° East 485 558 22,400  Level FlightAware ADS-B
Mon 02:52:27 PM 25.3450 56.3340 100° East 503 579 24,800 1,252 Climbing FlightAware ADS-B
Mon 02:53:07 PM 25.3320 56.4200 99° East 503 579 24,800 1,114 Level FlightAware ADS-B
Mon 02:54:47 PM 25.2710 56.7010 103° East 529 609 27,400 1,114 Climbing FlightAware ADS-B
Mon 02:55:27 PM 25.2490 56.7900 105° East 529 609 27,400  Level FlightAware ADS-B
Mon 02:56:07 PM 25.2280 56.8790 105° East 529 609 27,400 2,333 Level FlightAware ADS-B
Mon 02:56:57 PM 25.1360 57.0400 122° Southeast 557 641 30,900 2,333 Climbing FlightAware ADS-B
Mon 02:57:37 PM 25.1030 57.1300 112° Southeast 557 641 30,900  Level FlightAware ADS-B
Mon 02:58:17 PM 25.0700 57.2190 112° Southeast 557 641 30,900  Level FlightAware ADS-B
Mon 02:58:57 PM 25.0380 57.3090 111° Southeast 557 641 30,900  Level FlightAware ADS-B
Mon 02:59:37 PM 25.0050 57.3990 112° Southeast 557 641 30,900  Level FlightAware ADS-B
Mon 03:00:17 PM 24.9720 57.4880 112° Southeast 557 641 30,900  Level FlightAware ADS-B
Mon 03:01:07 PM 24.9310 57.6000 112° Southeast 557 641 30,900  Level FlightAware ADS-B
Mon 03:01:47 PM 24.8980 57.6900 112° Southeast 557 641 30,900  Level FlightAware ADS-B
Mon 03:02:27 PM 24.8650 57.7800 112° Southeast 557 641 30,900  Level FlightAware ADS-B
Mon 03:03:07 PM 24.8320 57.8690 112° Southeast 557 641 30,900  Level FlightAware ADS-B
Mon 03:03:47 PM 24.8000 57.9590 111° Southeast 557 641 30,900  Level FlightAware ADS-B
Mon 03:04:37 PM 24.7580 58.0700 113° Southeast 557 641 30,900  Level FlightAware ADS-B
Mon 03:05:17 PM 24.7260 58.1600 111° Southeast 557 641 30,900  Level FlightAware ADS-B
Mon 03:05:57 PM 24.6930 58.2490 112° Southeast 557 641 30,900  Level FlightAware ADS-B
Mon 03:08:00 PM 24.6095 58.5063 110° East  Level Estimated
Mon 03:09:00 PM 24.5687 58.6317 110° East  Level Estimated
Mon 03:10:00 PM 24.5277 58.7570 110° East  Level Estimated
Mon 03:11:00 PM 24.4866 58.8822 110° East  Level Estimated
Mon 03:12:00 PM 24.4454 59.0074 110° East  Level Estimated
Mon 03:13:00 PM 24.4041 59.1324 110° East  Level Estimated
Mon 03:14:00 PM 24.3627 59.2574 110° East  Level Estimated
Mon 03:15:00 PM 24.3213 59.3823 110° East  Level Estimated
Mon 03:16:00 PM 24.2797 59.5071 110° East  Level Estimated
Mon 03:17:00 PM 24.2380 59.6318 110° East  Level Estimated
Mon 03:18:00 PM 24.1962 59.7565 110° East  Level Estimated
Mon 03:19:00 PM 24.1543 59.8811 110° East  Level Estimated
Mon 03:20:00 PM 24.1123 60.0055 110° East  Level Estimated
Mon 03:21:00 PM 24.0702 60.1299 110° East  Level Estimated
Mon 03:22:00 PM 24.0280 60.2543 110° East  Level Estimated
Mon 03:23:00 PM 23.9857 60.3785 110° East  Level Estimated
Mon 03:24:00 PM 23.9433 60.5027 110° East  Level Estimated
Mon 03:25:00 PM 23.9008 60.6267 111° Southeast  Level Estimated
Mon 03:26:00 PM 23.8582 60.7507 111° Southeast  Level Estimated
Mon 03:27:00 PM 23.8155 60.8746 111° Southeast  Level Estimated
Mon 03:28:00 PM 23.7727 60.9985 111° Southeast  Level Estimated
Mon 03:29:00 PM 23.7298 61.1222 111° Southeast  Level Estimated
Mon 03:30:00 PM 23.6868 61.2459 111° Southeast  Level Estimated
Mon 03:31:00 PM 23.6437 61.3695 111° Southeast  Level Estimated
Mon 03:32:00 PM 23.6005 61.4930 111° Southeast  Level Estimated
Mon 03:33:00 PM 23.5572 61.6164 111° Southeast  Level Estimated
Mon 03:34:00 PM 23.5138 61.7398 111° Southeast  Level Estimated
Mon 03:35:00 PM 23.4703 61.8630 111° Southeast  Level Estimated
Mon 03:36:00 PM 23.4267 61.9862 111° Southeast  Level Estimated
Mon 03:37:00 PM 23.3831 62.1093 111° Southeast  Level Estimated
Mon 03:38:00 PM 23.3393 62.2323 111° Southeast  Level Estimated
Mon 03:39:00 PM 23.2954 62.3553 111° Southeast  Level Estimated
Mon 03:40:00 PM 23.2515 62.4781 111° Southeast  Level Estimated
Mon 03:41:00 PM 23.2074 62.6009 111° Southeast  Level Estimated
Mon 03:42:00 PM 23.1632 62.7236 111° Southeast  Level Estimated
Mon 03:43:00 PM 23.1190 62.8462 111° Southeast  Level Estimated
Mon 03:44:00 PM 23.0746 62.9687 111° Southeast  Level Estimated
Mon 03:45:00 PM 23.0302 63.0912 112° Southeast  Level Estimated
Mon 03:46:00 PM 22.9857 63.2136 112° Southeast  Level Estimated
Mon 03:47:00 PM 22.9410 63.3358 112° Southeast  Level Estimated
Mon 03:48:00 PM 22.8963 63.4581 112° Southeast  Level Estimated
Mon 03:49:00 PM 22.8515 63.5802 112° Southeast  Level Estimated
Mon 03:50:00 PM 22.8066 63.7022 112° Southeast  Level Estimated
Mon 03:51:00 PM 22.7616 63.8242 112° Southeast  Level Estimated
Mon 03:52:00 PM 22.7165 63.9461 112° Southeast  Level Estimated
Mon 03:53:00 PM 22.6713 64.0679 112° Southeast  Level Estimated
Mon 03:54:00 PM 22.6260 64.1896 112° Southeast  Level Estimated
Mon 03:55:00 PM 22.5807 64.3113 112° Southeast  Level Estimated
Mon 03:56:00 PM 22.5352 64.4329 112° Southeast  Level Estimated
Mon 03:57:00 PM 22.4897 64.5544 112° Southeast  Level Estimated
Mon 03:58:00 PM 22.4440 64.6758 112° Southeast  Level Estimated
Mon 03:59:00 PM 22.3983 64.7971 112° Southeast  Level Estimated
Mon 04:00:00 PM 22.3525 64.9183 112° Southeast  Level Estimated
Mon 04:01:00 PM 22.3066 65.0395 112° Southeast  Level Estimated
Mon 04:02:00 PM 22.2606 65.1606 112° Southeast  Level Estimated
Mon 04:03:00 PM 22.2145 65.2816 112° Southeast  Level Estimated
Mon 04:04:00 PM 22.1683 65.4025 112° Southeast  Level Estimated
Mon 04:05:00 PM 22.1220 65.5234 112° Southeast  Level Estimated
Mon 04:06:00 PM 22.0757 65.6442 112° Southeast  Level Estimated
Mon 04:07:00 PM 22.0292 65.7648 113° Southeast  Level Estimated
Mon 04:08:00 PM 21.9827 65.8855 113° Southeast  Level Estimated
Mon 04:09:00 PM 21.9360 66.0060 113° Southeast  Level Estimated
Mon 04:10:00 PM 21.8893 66.1264 113° Southeast  Level Estimated
Mon 04:11:00 PM 21.8425 66.2468 113° Southeast  Level Estimated
Mon 04:12:00 PM 21.7956 66.3671 113° Southeast  Level Estimated
Mon 04:13:00 PM 21.7487 66.4873 113° Southeast  Level Estimated
Mon 04:14:00 PM 21.7016 66.6075 113° Southeast  Level Estimated
Mon 04:15:00 PM 21.6544 66.7275 113° Southeast  Level Estimated
Mon 04:16:00 PM 21.6072 66.8475 113° Southeast  Level Estimated
Mon 04:17:00 PM 21.5599 66.9674 113° Southeast  Level Estimated
Mon 04:18:00 PM 21.5125 67.0872 113° Southeast  Level Estimated
Mon 04:19:00 PM 21.4650 67.2070 113° Southeast  Level Estimated
Mon 04:20:00 PM 21.4174 67.3266 113° Southeast  Level Estimated
Mon 04:21:00 PM 21.3697 67.4462 113° Southeast  Level Estimated
Mon 04:22:00 PM 21.3220 67.5657 113° Southeast  Level Estimated
Mon 04:23:00 PM 21.2742 67.6852 113° Southeast  Level Estimated
Mon 04:24:00 PM 21.2262 67.8045 113° Southeast  Level Estimated
Mon 04:25:00 PM 21.1782 67.9238 113° Southeast  Level Estimated
Mon 04:26:00 PM 21.1302 68.0430 113° Southeast  Level Estimated
Mon 04:27:00 PM 21.0820 68.1621 113° Southeast  Level Estimated
Mon 04:28:00 PM 21.0338 68.2812 113° Southeast  Level Estimated
Mon 04:29:00 PM 20.9854 68.4001 113° Southeast  Level Estimated
Mon 04:30:00 PM 20.9370 68.5190 114° Southeast  Level Estimated
Mon 04:31:00 PM 20.8885 68.6378 114° Southeast  Level Estimated
Mon 04:32:00 PM 20.8399 68.7566 114° Southeast  Level Estimated
Mon 04:33:00 PM 20.7913 68.8752 114° Southeast  Level Estimated
Mon 04:34:00 PM 20.7425 68.9938 114° Southeast  Level Estimated
Mon 04:35:00 PM 20.6937 69.1123 114° Southeast  Level Estimated
Mon 04:36:00 PM 20.6448 69.2308 114° Southeast  Level Estimated
Mon 04:37:00 PM 20.5958 69.3491 114° Southeast  Level Estimated
Mon 04:38:00 PM 20.5467 69.4674 114° Southeast  Level Estimated
Mon 04:39:00 PM 20.4976 69.5856 114° Southeast  Level Estimated
Mon 04:40:00 PM 20.4484 69.7037 114° Southeast  Level Estimated
Mon 04:41:00 PM 20.3990 69.8218 114° Southeast  Level Estimated
Mon 04:42:00 PM 20.3497 69.9398 114° Southeast  Level Estimated
Mon 04:43:00 PM 20.3002 70.0577 114° Southeast  Level Estimated
Mon 04:44:00 PM 20.2507 70.1755 114° Southeast  Level Estimated
Mon 04:45:00 PM 20.2010 70.2932 114° Southeast  Level Estimated
Mon 04:46:00 PM 20.1513 70.4109 114° Southeast  Level Estimated
Mon 04:47:00 PM 20.1016 70.5285 114° Southeast  Level Estimated
Mon 04:48:00 PM 20.0517 70.6460 114° Southeast  Level Estimated
Mon 04:49:00 PM 20.0018 70.7635 114° Southeast  Level Estimated
Mon 04:50:00 PM 19.9518 70.8809 114° Southeast  Level Estimated
Mon 04:51:00 PM 19.9017 70.9982 114° Southeast  Level Estimated
Mon 04:52:00 PM 19.8515 71.1154 114° Southeast  Level Estimated
Mon 04:53:00 PM 19.8013 71.2326 114° Southeast  Level Estimated
Mon 04:54:00 PM 19.7509 71.3496 115° Southeast  Level Estimated
Mon 04:55:00 PM 19.7006 71.4667 115° Southeast  Level Estimated
Mon 04:56:00 PM 19.6501 71.5836 115° Southeast  Level Estimated
Mon 04:57:00 PM 19.5995 71.7004 115° Southeast  Level Estimated
Mon 04:58:00 PM 19.5489 71.8172 115° Southeast  Level Estimated
Mon 04:59:00 PM 19.4982 71.9339 115° Southeast  Level Estimated
Mon 05:00:00 PM 19.4474 72.0506 115° Southeast  Level Estimated
Mon 05:01:00 PM 19.3966 72.1671 115° Southeast  Level Estimated
Mon 05:02:00 PM 19.3457 72.2836 115° Southeast  Level Estimated
Mon 05:03:00 PM 19.2947 72.4000 115° Southeast  Level Estimated
Mon 05:04:00 PM 19.2436 72.5164 115° Southeast  Level Estimated
Mon 05:05:00 PM 19.1925 72.6327 115° Southeast  Level Estimated
Mon 05:06:00 PM 19.1413 72.7489 115° Southeast  Level Estimated
Mon 05:07:00 PM 19.0900 72.8650 115° Southeast  Level Estimated
Mon 05:08:00 PM 19.0887 72.8679 115° Southeast  Level Estimated
Mon 05:09:00 PM 19.0887 72.8679 193° South  Level Estimated
Mon 05:10:00 PM 19.0887 72.8679 193° South  Level Estimated
Mon 05:11:00 PM 19.0887 72.8679 193° South  Level Estimated
Mon 05:12:00 PM 19.0887 72.8679 193° South  Level Estimated
Mon 05:13:00 PM 19.0887 72.8679 193° South  Level Estimated

Login

Don't have an account? Register now (free) for customized features, flight alerts, and more!